sensor_id;sensor_type;location;lat;lon;timestamp;P1;durP1;ratioP1;P2;durP2;ratioP2
14776;SDS011;7480;43.124;25.686;2023-04-03T00:00:17;1.33;;;1.23;;
14776;SDS011;7480;43.124;25.686;2023-04-03T00:02:44;1.30;;;1.20;;
14776;SDS011;7480;43.124;25.686;2023-04-03T00:05:11;1.40;;;1.30;;
14776;SDS011;7480;43.124;25.686;2023-04-03T00:07:38;1.60;;;1.50;;
14776;SDS011;7480;43.124;25.686;2023-04-03T00:10:04;1.60;;;1.40;;
14776;SDS011;7480;43.124;25.686;2023-04-03T00:12:31;2.37;;;1.50;;
14776;SDS011;7480;43.124;25.686;2023-04-03T00:14:58;3.40;;;1.70;;
14776;SDS011;7480;43.124;25.686;2023-04-03T00:17:25;1.50;;;1.40;;
14776;SDS011;7480;43.124;25.686;2023-04-03T00:19:51;2.13;;;1.93;;
14776;SDS011;7480;43.124;25.686;2023-04-03T00:22:18;3.90;;;3.13;;
14776;SDS011;7480;43.124;25.686;2023-04-03T00:24:45;3.40;;;3.10;;
14776;SDS011;7480;43.124;25.686;2023-04-03T00:27:11;2.87;;;2.60;;
14776;SDS011;7480;43.124;25.686;2023-04-03T00:29:38;3.77;;;2.53;;
14776;SDS011;7480;43.124;25.686;2023-04-03T00:32:04;3.30;;;2.77;;
14776;SDS011;7480;43.124;25.686;2023-04-03T00:34:31;3.40;;;2.40;;
14776;SDS011;7480;43.124;25.686;2023-04-03T00:36:58;4.93;;;3.33;;
14776;SDS011;7480;43.124;25.686;2023-04-03T00:39:24;6.60;;;4.43;;
14776;SDS011;7480;43.124;25.686;2023-04-03T00:41:51;4.27;;;3.97;;
14776;SDS011;7480;43.124;25.686;2023-04-03T00:44:21;4.10;;;3.70;;
14776;SDS011;7480;43.124;25.686;2023-04-03T00:46:55;5.27;;;4.40;;
14776;SDS011;7480;43.124;25.686;2023-04-03T00:49:21;4.33;;;3.93;;
14776;SDS011;7480;43.124;25.686;2023-04-03T00:51:48;4.17;;;3.53;;
14776;SDS011;7480;43.124;25.686;2023-04-03T00:54:15;4.13;;;3.73;;
14776;SDS011;7480;43.124;25.686;2023-04-03T00:56:41;5.67;;;4.00;;
14776;SDS011;7480;43.124;25.686;2023-04-03T00:59:13;5.00;;;4.50;;
14776;SDS011;7480;43.124;25.686;2023-04-03T01:01:47;6.23;;;4.07;;
14776;SDS011;7480;43.124;25.686;2023-04-03T01:04:31;6.13;;;4.40;;
14776;SDS011;7480;43.124;25.686;2023-04-03T01:07:04;6.13;;;4.20;;
14776;SDS011;7480;43.124;25.686;2023-04-03T01:09:37;4.87;;;4.07;;
14776;SDS011;7480;43.124;25.686;2023-04-03T01:14:48;4.57;;;3.57;;
14776;SDS011;7480;43.124;25.686;2023-04-03T01:20:00;3.13;;;2.73;;
14776;SDS011;7480;43.124;25.686;2023-04-03T01:22:45;4.57;;;3.40;;
14776;SDS011;7480;43.124;25.686;2023-04-03T01:25:15;4.27;;;3.87;;
14776;SDS011;7480;43.124;25.686;2023-04-03T01:27:41;4.17;;;3.40;;
14776;SDS011;7480;43.124;25.686;2023-04-03T01:30:08;4.67;;;3.43;;
14776;SDS011;7480;43.124;25.686;2023-04-03T01:32:35;3.67;;;3.03;;
14776;SDS011;7480;43.124;25.686;2023-04-03T01:35:02;5.10;;;3.60;;
14776;SDS011;7480;43.124;25.686;2023-04-03T01:37:29;4.17;;;3.53;;
14776;SDS011;7480;43.124;25.686;2023-04-03T01:39:56;3.83;;;3.33;;
14776;SDS011;7480;43.124;25.686;2023-04-03T01:42:22;3.43;;;2.93;;
14776;SDS011;7480;43.124;25.686;2023-04-03T01:44:49;3.70;;;3.40;;
14776;SDS011;7480;43.124;25.686;2023-04-03T01:47:16;3.80;;;3.40;;
14776;SDS011;7480;43.124;25.686;2023-04-03T01:49:42;4.30;;;3.90;;
14776;SDS011;7480;43.124;25.686;2023-04-03T01:52:09;4.07;;;3.67;;
14776;SDS011;7480;43.124;25.686;2023-04-03T01:54:35;4.47;;;4.07;;
14776;SDS011;7480;43.124;25.686;2023-04-03T01:57:02;5.43;;;4.63;;
14776;SDS011;7480;43.124;25.686;2023-04-03T01:59:29;4.67;;;3.97;;
14776;SDS011;7480;43.124;25.686;2023-04-03T02:01:55;5.90;;;4.50;;
14776;SDS011;7480;43.124;25.686;2023-04-03T02:04:22;5.30;;;4.20;;
14776;SDS011;7480;43.124;25.686;2023-04-03T02:06:49;6.20;;;4.47;;
14776;SDS011;7480;43.124;25.686;2023-04-03T02:09:16;6.73;;;5.23;;
14776;SDS011;7480;43.124;25.686;2023-04-03T02:11:42;5.23;;;4.07;;
14776;SDS011;7480;43.124;25.686;2023-04-03T02:14:09;6.03;;;4.03;;
14776;SDS011;7480;43.124;25.686;2023-04-03T02:16:35;6.93;;;5.00;;
14776;SDS011;7480;43.124;25.686;2023-04-03T02:19:03;6.20;;;5.00;;
14776;SDS011;7480;43.124;25.686;2023-04-03T02:21:29;5.97;;;4.27;;
14776;SDS011;7480;43.124;25.686;2023-04-03T02:23:56;7.33;;;5.40;;
14776;SDS011;7480;43.124;25.686;2023-04-03T02:26:23;6.87;;;5.60;;
14776;SDS011;7480;43.124;25.686;2023-04-03T02:28:49;6.43;;;5.47;;
14776;SDS011;7480;43.124;25.686;2023-04-03T02:31:16;6.33;;;5.47;;
14776;SDS011;7480;43.124;25.686;2023-04-03T02:33:43;5.50;;;4.93;;
14776;SDS011;7480;43.124;25.686;2023-04-03T02:36:10;6.20;;;4.80;;
14776;SDS011;7480;43.124;25.686;2023-04-03T02:38:36;6.93;;;4.50;;
14776;SDS011;7480;43.124;25.686;2023-04-03T02:41:07;5.40;;;4.33;;
14776;SDS011;7480;43.124;25.686;2023-04-03T02:43:35;15.53;;;6.80;;
14776;SDS011;7480;43.124;25.686;2023-04-03T02:46:01;10.97;;;6.23;;
14776;SDS011;7480;43.124;25.686;2023-04-03T02:48:29;13.23;;;6.37;;
14776;SDS011;7480;43.124;25.686;2023-04-03T02:50:55;10.87;;;5.77;;
14776;SDS011;7480;43.124;25.686;2023-04-03T02:53:22;6.50;;;4.47;;
14776;SDS011;7480;43.124;25.686;2023-04-03T02:55:49;4.80;;;3.80;;
14776;SDS011;7480;43.124;25.686;2023-04-03T02:58:16;4.03;;;3.63;;
14776;SDS011;7480;43.124;25.686;2023-04-03T03:00:43;5.93;;;4.10;;
14776;SDS011;7480;43.124;25.686;2023-04-03T03:03:09;4.30;;;3.90;;
14776;SDS011;7480;43.124;25.686;2023-04-03T03:05:36;4.67;;;3.60;;
14776;SDS011;7480;43.124;25.686;2023-04-03T03:08:03;5.10;;;3.83;;
14776;SDS011;7480;43.124;25.686;2023-04-03T03:10:29;4.13;;;3.60;;
14776;SDS011;7480;43.124;25.686;2023-04-03T03:12:56;6.57;;;4.10;;
14776;SDS011;7480;43.124;25.686;2023-04-03T03:15:23;8.17;;;6.80;;
14776;SDS011;7480;43.124;25.686;2023-04-03T03:17:49;8.37;;;6.47;;
14776;SDS011;7480;43.124;25.686;2023-04-03T03:20:16;7.20;;;6.37;;
14776;SDS011;7480;43.124;25.686;2023-04-03T03:22:43;6.60;;;5.20;;
14776;SDS011;7480;43.124;25.686;2023-04-03T03:25:09;6.00;;;5.20;;
14776;SDS011;7480;43.124;25.686;2023-04-03T03:27:36;5.43;;;4.33;;
14776;SDS011;7480;43.124;25.686;2023-04-03T03:30:03;4.23;;;3.67;;
14776;SDS011;7480;43.124;25.686;2023-04-03T03:32:31;4.90;;;3.67;;
14776;SDS011;7480;43.124;25.686;2023-04-03T03:34:58;4.37;;;3.73;;
14776;SDS011;7480;43.124;25.686;2023-04-03T03:37:24;4.33;;;3.50;;
14776;SDS011;7480;43.124;25.686;2023-04-03T03:39:51;3.70;;;3.00;;
14776;SDS011;7480;43.124;25.686;2023-04-03T03:42:17;4.07;;;3.40;;
14776;SDS011;7480;43.124;25.686;2023-04-03T03:44:44;4.20;;;3.15;;
14776;SDS011;7480;43.124;25.686;2023-04-03T03:47:10;3.50;;;2.90;;
14776;SDS011;7480;43.124;25.686;2023-04-03T03:49:37;2.20;;;2.00;;
14776;SDS011;7480;43.124;25.686;2023-04-03T03:52:04;2.37;;;2.17;;
14776;SDS011;7480;43.124;25.686;2023-04-03T03:54:31;3.13;;;2.67;;
14776;SDS011;7480;43.124;25.686;2023-04-03T03:56:57;5.23;;;3.80;;
14776;SDS011;7480;43.124;25.686;2023-04-03T03:59:24;2.90;;;2.60;;
14776;SDS011;7480;43.124;25.686;2023-04-03T04:01:51;2.60;;;2.40;;
14776;SDS011;7480;43.124;25.686;2023-04-03T04:04:17;2.57;;;2.37;;
14776;SDS011;7480;43.124;25.686;2023-04-03T04:06:45;4.03;;;2.70;;
14776;SDS011;7480;43.124;25.686;2023-04-03T04:09:11;4.73;;;3.27;;
14776;SDS011;7480;43.124;25.686;2023-04-03T04:11:38;7.10;;;3.87;;
14776;SDS011;7480;43.124;25.686;2023-04-03T04:14:06;6.40;;;3.83;;
14776;SDS011;7480;43.124;25.686;2023-04-03T04:16:33;5.87;;;3.10;;
14776;SDS011;7480;43.124;25.686;2023-04-03T04:19:00;3.80;;;3.40;;
14776;SDS011;7480;43.124;25.686;2023-04-03T04:21:26;5.33;;;3.20;;
14776;SDS011;7480;43.124;25.686;2023-04-03T04:23:53;4.97;;;3.30;;
14776;SDS011;7480;43.124;25.686;2023-04-03T04:26:19;11.00;;;4.50;;
14776;SDS011;7480;43.124;25.686;2023-04-03T04:28:46;8.10;;;5.10;;
14776;SDS011;7480;43.124;25.686;2023-04-03T04:31:13;3.30;;;3.00;;
14776;SDS011;7480;43.124;25.686;2023-04-03T04:33:40;4.03;;;2.97;;
14776;SDS011;7480;43.124;25.686;2023-04-03T04:36:07;5.23;;;2.37;;
14776;SDS011;7480;43.124;25.686;2023-04-03T04:38:33;5.27;;;2.50;;
14776;SDS011;7480;43.124;25.686;2023-04-03T04:41:00;4.37;;;3.00;;
14776;SDS011;7480;43.124;25.686;2023-04-03T04:43:27;4.43;;;2.47;;
14776;SDS011;7480;43.124;25.686;2023-04-03T04:46:00;5.23;;;3.33;;
14776;SDS011;7480;43.124;25.686;2023-04-03T04:48:30;3.20;;;2.63;;
14776;SDS011;7480;43.124;25.686;2023-04-03T04:50:58;3.70;;;2.43;;
14776;SDS011;7480;43.124;25.686;2023-04-03T04:53:24;4.67;;;2.30;;
14776;SDS011;7480;43.124;25.686;2023-04-03T04:55:51;3.83;;;2.67;;
14776;SDS011;7480;43.124;25.686;2023-04-03T04:58:19;7.00;;;2.47;;
14776;SDS011;7480;43.124;25.686;2023-04-03T05:00:46;4.30;;;2.37;;
14776;SDS011;7480;43.124;25.686;2023-04-03T05:03:12;1.93;;;1.80;;
14776;SDS011;7480;43.124;25.686;2023-04-03T05:05:39;4.10;;;2.00;;
14776;SDS011;7480;43.124;25.686;2023-04-03T05:08:06;2.27;;;2.00;;
14776;SDS011;7480;43.124;25.686;2023-04-03T05:10:34;18.27;;;10.03;;
14776;SDS011;7480;43.124;25.686;2023-04-03T05:13:01;65.40;;;24.67;;
14776;SDS011;7480;43.124;25.686;2023-04-03T05:15:28;26.80;;;8.67;;
14776;SDS011;7480;43.124;25.686;2023-04-03T05:17:54;63.63;;;24.30;;
14776;SDS011;7480;43.124;25.686;2023-04-03T05:20:21;8.07;;;5.53;;
14776;SDS011;7480;43.124;25.686;2023-04-03T05:22:47;3.97;;;3.57;;
14776;SDS011;7480;43.124;25.686;2023-04-03T05:25:14;4.37;;;3.47;;
14776;SDS011;7480;43.124;25.686;2023-04-03T05:27:41;2.60;;;2.30;;
14776;SDS011;7480;43.124;25.686;2023-04-03T05:30:07;3.20;;;2.70;;
14776;SDS011;7480;43.124;25.686;2023-04-03T05:32:34;1.73;;;1.63;;
14776;SDS011;7480;43.124;25.686;2023-04-03T05:35:01;1.90;;;1.60;;
14776;SDS011;7480;43.124;25.686;2023-04-03T05:37:28;1.70;;;1.40;;
14776;SDS011;7480;43.124;25.686;2023-04-03T05:39:55;2.73;;;1.60;;
14776;SDS011;7480;43.124;25.686;2023-04-03T05:42:22;1.50;;;1.40;;
14776;SDS011;7480;43.124;25.686;2023-04-03T05:44:49;2.03;;;1.40;;
14776;SDS011;7480;43.124;25.686;2023-04-03T05:47:16;2.80;;;1.70;;
14776;SDS011;7480;43.124;25.686;2023-04-03T05:49:43;2.10;;;1.80;;
14776;SDS011;7480;43.124;25.686;2023-04-03T05:52:18;1.90;;;1.40;;
14776;SDS011;7480;43.124;25.686;2023-04-03T05:54:48;2.13;;;1.20;;
14776;SDS011;7480;43.124;25.686;2023-04-03T05:57:15;3.27;;;1.50;;
14776;SDS011;7480;43.124;25.686;2023-04-03T05:59:45;2.20;;;1.50;;
14776;SDS011;7480;43.124;25.686;2023-04-03T06:02:13;2.23;;;1.70;;
14776;SDS011;7480;43.124;25.686;2023-04-03T06:04:42;2.83;;;1.70;;
14776;SDS011;7480;43.124;25.686;2023-04-03T06:07:11;2.60;;;1.50;;
14776;SDS011;7480;43.124;25.686;2023-04-03T06:09:39;1.30;;;1.20;;
14776;SDS011;7480;43.124;25.686;2023-04-03T06:12:06;4.30;;;1.40;;
14776;SDS011;7480;43.124;25.686;2023-04-03T06:14:32;1.90;;;1.40;;
14776;SDS011;7480;43.124;25.686;2023-04-03T06:16:59;2.27;;;1.60;;
14776;SDS011;7480;43.124;25.686;2023-04-03T06:19:26;1.77;;;1.67;;
14776;SDS011;7480;43.124;25.686;2023-04-03T06:21:53;4.67;;;2.00;;
14776;SDS011;7480;43.124;25.686;2023-04-03T06:24:19;3.97;;;2.50;;
14776;SDS011;7480;43.124;25.686;2023-04-03T06:26:47;7.17;;;3.80;;
14776;SDS011;7480;43.124;25.686;2023-04-03T06:29:15;4.00;;;2.37;;
14776;SDS011;7480;43.124;25.686;2023-04-03T06:31:41;8.63;;;5.83;;
14776;SDS011;7480;43.124;25.686;2023-04-03T06:34:08;5.80;;;4.47;;
14776;SDS011;7480;43.124;25.686;2023-04-03T06:36:35;4.03;;;3.13;;
14776;SDS011;7480;43.124;25.686;2023-04-03T06:39:02;3.10;;;2.40;;
14776;SDS011;7480;43.124;25.686;2023-04-03T06:41:29;3.63;;;3.03;;
14776;SDS011;7480;43.124;25.686;2023-04-03T06:43:56;5.77;;;3.30;;
14776;SDS011;7480;43.124;25.686;2023-04-03T06:46:25;2.63;;;1.77;;
14776;SDS011;7480;43.124;25.686;2023-04-03T06:48:53;6.10;;;3.63;;
14776;SDS011;7480;43.124;25.686;2023-04-03T06:53:49;4.27;;;1.97;;
14776;SDS011;7480;43.124;25.686;2023-04-03T06:56:16;2.27;;;2.07;;
14776;SDS011;7480;43.124;25.686;2023-04-03T06:58:43;7.93;;;4.73;;
14776;SDS011;7480;43.124;25.686;2023-04-03T07:01:10;2.77;;;2.17;;
14776;SDS011;7480;43.124;25.686;2023-04-03T07:03:38;17.10;;;10.13;;
14776;SDS011;7480;43.124;25.686;2023-04-03T07:06:05;2.77;;;2.27;;
14776;SDS011;7480;43.124;25.686;2023-04-03T07:08:33;2.57;;;2.00;;
14776;SDS011;7480;43.124;25.686;2023-04-03T07:11:00;5.80;;;3.70;;
14776;SDS011;7480;43.124;25.686;2023-04-03T07:13:27;3.50;;;2.10;;
14776;SDS011;7480;43.124;25.686;2023-04-03T07:15:54;3.17;;;2.60;;
14776;SDS011;7480;43.124;25.686;2023-04-03T07:18:20;3.03;;;2.20;;
14776;SDS011;7480;43.124;25.686;2023-04-03T07:20:47;5.13;;;2.83;;
14776;SDS011;7480;43.124;25.686;2023-04-03T07:23:14;11.17;;;6.33;;
14776;SDS011;7480;43.124;25.686;2023-04-03T07:25:47;7.00;;;4.70;;
14776;SDS011;7480;43.124;25.686;2023-04-03T07:28:15;4.23;;;3.70;;
14776;SDS011;7480;43.124;25.686;2023-04-03T07:30:51;7.63;;;4.87;;
14776;SDS011;7480;43.124;25.686;2023-04-03T07:33:19;4.97;;;4.00;;
14776;SDS011;7480;43.124;25.686;2023-04-03T07:35:48;5.40;;;3.60;;
14776;SDS011;7480;43.124;25.686;2023-04-03T07:38:15;3.90;;;2.90;;
14776;SDS011;7480;43.124;25.686;2023-04-03T07:40:46;6.07;;;3.90;;
14776;SDS011;7480;43.124;25.686;2023-04-03T07:43:14;5.57;;;4.17;;
14776;SDS011;7480;43.124;25.686;2023-04-03T07:45:42;5.13;;;2.90;;
14776;SDS011;7480;43.124;25.686;2023-04-03T07:48:12;2.10;;;1.87;;
14776;SDS011;7480;43.124;25.686;2023-04-03T07:50:40;3.37;;;1.90;;
14776;SDS011;7480;43.124;25.686;2023-04-03T07:53:07;4.10;;;2.20;;
14776;SDS011;7480;43.124;25.686;2023-04-03T07:55:34;2.80;;;2.37;;
14776;SDS011;7480;43.124;25.686;2023-04-03T07:58:03;2.80;;;2.27;;
14776;SDS011;7480;43.124;25.686;2023-04-03T08:00:31;3.70;;;1.70;;
14776;SDS011;7480;43.124;25.686;2023-04-03T08:02:57;2.33;;;1.10;;
14776;SDS011;7480;43.124;25.686;2023-04-03T08:05:24;1.80;;;1.60;;
14776;SDS011;7480;43.124;25.686;2023-04-03T08:07:51;2.53;;;2.33;;
14776;SDS011;7480;43.124;25.686;2023-04-03T08:10:18;2.77;;;2.07;;
14776;SDS011;7480;43.124;25.686;2023-04-03T08:12:48;3.07;;;2.30;;
14776;SDS011;7480;43.124;25.686;2023-04-03T08:15:15;3.70;;;2.90;;
14776;SDS011;7480;43.124;25.686;2023-04-03T08:17:42;2.80;;;1.93;;
14776;SDS011;7480;43.124;25.686;2023-04-03T08:20:09;2.97;;;1.90;;
14776;SDS011;7480;43.124;25.686;2023-04-03T08:22:36;2.07;;;1.83;;
14776;SDS011;7480;43.124;25.686;2023-04-03T08:25:03;2.57;;;1.83;;
14776;SDS011;7480;43.124;25.686;2023-04-03T08:27:30;2.83;;;1.20;;
14776;SDS011;7480;43.124;25.686;2023-04-03T08:29:56;2.03;;;1.80;;
14776;SDS011;7480;43.124;25.686;2023-04-03T08:32:23;2.37;;;1.57;;
14776;SDS011;7480;43.124;25.686;2023-04-03T08:34:50;1.73;;;1.30;;
14776;SDS011;7480;43.124;25.686;2023-04-03T08:37:17;1.93;;;1.33;;
14776;SDS011;7480;43.124;25.686;2023-04-03T08:39:44;1.43;;;1.30;;
14776;SDS011;7480;43.124;25.686;2023-04-03T08:50:35;2.17;;;1.97;;
14776;SDS011;7480;43.124;25.686;2023-04-03T08:53:05;3.93;;;1.90;;
14776;SDS011;7480;43.124;25.686;2023-04-03T08:55:33;2.60;;;2.00;;
14776;SDS011;7480;43.124;25.686;2023-04-03T08:58:05;1.50;;;1.40;;
14776;SDS011;7480;43.124;25.686;2023-04-03T09:00:54;3.13;;;1.40;;
14776;SDS011;7480;43.124;25.686;2023-04-03T09:03:22;1.30;;;1.20;;
14776;SDS011;7480;43.124;25.686;2023-04-03T09:05:54;2.57;;;1.50;;
14776;SDS011;7480;43.124;25.686;2023-04-03T09:08:24;1.90;;;1.40;;
14776;SDS011;7480;43.124;25.686;2023-04-03T09:14:02;2.50;;;2.30;;
14776;SDS011;7480;43.124;25.686;2023-04-03T09:21:46;1.63;;;1.53;;
14776;SDS011;7480;43.124;25.686;2023-04-03T09:24:14;2.83;;;1.70;;
14776;SDS011;7480;43.124;25.686;2023-04-03T09:26:46;1.47;;;1.37;;
14776;SDS011;7480;43.124;25.686;2023-04-03T09:29:46;2.10;;;1.70;;
14776;SDS011;7480;43.124;25.686;2023-04-03T09:32:32;2.50;;;1.47;;
14776;SDS011;7480;43.124;25.686;2023-04-03T09:35:04;1.83;;;1.50;;
14776;SDS011;7480;43.124;25.686;2023-04-03T09:37:49;3.40;;;1.47;;
14776;SDS011;7480;43.124;25.686;2023-04-03T09:40:34;1.70;;;1.37;;
14776;SDS011;7480;43.124;25.686;2023-04-03T09:43:08;2.07;;;1.57;;
14776;SDS011;7480;43.124;25.686;2023-04-03T09:45:47;1.43;;;1.30;;
14776;SDS011;7480;43.124;25.686;2023-04-03T09:53:38;1.30;;;1.20;;
14776;SDS011;7480;43.124;25.686;2023-04-03T09:58:42;2.20;;;1.40;;
14776;SDS011;7480;43.124;25.686;2023-04-03T10:06:35;1.63;;;1.37;;
14776;SDS011;7480;43.124;25.686;2023-04-03T10:09:37;1.63;;;1.00;;
14776;SDS011;7480;43.124;25.686;2023-04-03T10:12:00;2.03;;;1.40;;
14776;SDS011;7480;43.124;25.686;2023-04-03T10:14:28;1.50;;;1.40;;
14776;SDS011;7480;43.124;25.686;2023-04-03T10:19:54;2.00;;;1.40;;
14776;SDS011;7480;43.124;25.686;2023-04-03T10:30:28;2.53;;;1.63;;
14776;SDS011;7480;43.124;25.686;2023-04-03T10:38:43;1.40;;;1.20;;
14776;SDS011;7480;43.124;25.686;2023-04-03T10:41:14;6.53;;;1.70;;
14776;SDS011;7480;43.124;25.686;2023-04-03T10:43:44;1.67;;;1.37;;
14776;SDS011;7480;43.124;25.686;2023-04-03T10:46:27;2.20;;;1.60;;
14776;SDS011;7480;43.124;25.686;2023-04-03T10:51:47;1.70;;;1.50;;
14776;SDS011;7480;43.124;25.686;2023-04-03T10:54:24;1.70;;;1.30;;
14776;SDS011;7480;43.124;25.686;2023-04-03T10:59:39;1.53;;;1.40;;
14776;SDS011;7480;43.124;25.686;2023-04-03T11:02:27;3.07;;;1.30;;
14776;SDS011;7480;43.124;25.686;2023-04-03T11:05:06;1.73;;;1.57;;
14776;SDS011;7480;43.124;25.686;2023-04-03T11:07:40;2.03;;;1.77;;
14776;SDS011;7480;43.124;25.686;2023-04-03T11:10:18;1.77;;;1.67;;
14776;SDS011;7480;43.124;25.686;2023-04-03T11:13:01;2.60;;;1.73;;
14776;SDS011;7480;43.124;25.686;2023-04-03T11:15:33;7.00;;;3.60;;
14776;SDS011;7480;43.124;25.686;2023-04-03T11:18:12;7.67;;;3.47;;
14776;SDS011;7480;43.124;25.686;2023-04-03T11:20:42;4.90;;;2.63;;
14776;SDS011;7480;43.124;25.686;2023-04-03T11:23:17;2.43;;;2.00;;
14776;SDS011;7480;43.124;25.686;2023-04-03T11:25:49;2.30;;;1.60;;
14776;SDS011;7480;43.124;25.686;2023-04-03T11:28:18;4.03;;;1.60;;
14776;SDS011;7480;43.124;25.686;2023-04-03T11:36:26;1.77;;;1.57;;
14776;SDS011;7480;43.124;25.686;2023-04-03T11:39:07;2.53;;;1.63;;
14776;SDS011;7480;43.124;25.686;2023-04-03T11:41:49;1.53;;;0.97;;
14776;SDS011;7480;43.124;25.686;2023-04-03T11:47:06;1.03;;;0.77;;
14776;SDS011;7480;43.124;25.686;2023-04-03T12:14:21;1.83;;;1.50;;
14776;SDS011;7480;43.124;25.686;2023-04-03T12:16:27;1.80;;;1.60;;
14776;SDS011;7480;43.124;25.686;2023-04-03T12:29:45;3.03;;;1.60;;
14776;SDS011;7480;43.124;25.686;2023-04-03T12:35:27;2.10;;;1.70;;
14776;SDS011;7480;43.124;25.686;2023-04-03T12:44:07;1.57;;;1.47;;
14776;SDS011;7480;43.124;25.686;2023-04-03T12:46:46;1.87;;;0.90;;
14776;SDS011;7480;43.124;25.686;2023-04-03T12:49:22;1.30;;;1.20;;
14776;SDS011;7480;43.124;25.686;2023-04-03T12:51:59;1.70;;;1.10;;
14776;SDS011;7480;43.124;25.686;2023-04-03T12:54:30;1.47;;;1.03;;
14776;SDS011;7480;43.124;25.686;2023-04-03T12:57:26;4.20;;;2.83;;
14776;SDS011;7480;43.124;25.686;2023-04-03T12:59:54;1.20;;;1.10;;
14776;SDS011;7480;43.124;25.686;2023-04-03T13:02:22;1.40;;;1.10;;
14776;SDS011;7480;43.124;25.686;2023-04-03T13:04:54;1.43;;;1.20;;
14776;SDS011;7480;43.124;25.686;2023-04-03T13:07:34;2.90;;;1.70;;
14776;SDS011;7480;43.124;25.686;2023-04-03T13:12:51;1.90;;;1.70;;
14776;SDS011;7480;43.124;25.686;2023-04-03T13:15:22;2.80;;;2.50;;
14776;SDS011;7480;43.124;25.686;2023-04-03T13:17:56;8.47;;;5.63;;
14776;SDS011;7480;43.124;25.686;2023-04-03T13:20:27;3.60;;;2.03;;
14776;SDS011;7480;43.124;25.686;2023-04-03T13:22:58;2.97;;;1.70;;
14776;SDS011;7480;43.124;25.686;2023-04-03T13:25:27;1.83;;;1.60;;
14776;SDS011;7480;43.124;25.686;2023-04-03T13:27:56;1.87;;;1.20;;
14776;SDS011;7480;43.124;25.686;2023-04-03T13:30:29;1.60;;;1.50;;
14776;SDS011;7480;43.124;25.686;2023-04-03T13:33:00;5.23;;;1.77;;
14776;SDS011;7480;43.124;25.686;2023-04-03T13:35:36;3.40;;;1.50;;
14776;SDS011;7480;43.124;25.686;2023-04-03T13:38:27;3.83;;;1.77;;
14776;SDS011;7480;43.124;25.686;2023-04-03T13:40:54;8.93;;;2.70;;
14776;SDS011;7480;43.124;25.686;2023-04-03T13:43:24;5.53;;;2.20;;
14776;SDS011;7480;43.124;25.686;2023-04-03T13:48:51;5.97;;;1.93;;
14776;SDS011;7480;43.124;25.686;2023-04-03T13:51:27;9.03;;;2.70;;
14776;SDS011;7480;43.124;25.686;2023-04-03T13:53:59;3.17;;;2.80;;
14776;SDS011;7480;43.124;25.686;2023-04-03T13:56:31;2.67;;;2.20;;
14776;SDS011;7480;43.124;25.686;2023-04-03T13:59:47;3.97;;;2.47;;
14776;SDS011;7480;43.124;25.686;2023-04-03T14:02:18;1.97;;;1.80;;
14776;SDS011;7480;43.124;25.686;2023-04-03T14:07:11;2.70;;;2.30;;
14776;SDS011;7480;43.124;25.686;2023-04-03T14:09:38;5.67;;;3.57;;
14776;SDS011;7480;43.124;25.686;2023-04-03T14:12:12;3.50;;;2.83;;
14776;SDS011;7480;43.124;25.686;2023-04-03T14:14:56;4.60;;;3.70;;
14776;SDS011;7480;43.124;25.686;2023-04-03T14:17:24;3.27;;;2.30;;
14776;SDS011;7480;43.124;25.686;2023-04-03T14:19:53;4.80;;;4.33;;
14776;SDS011;7480;43.124;25.686;2023-04-03T14:22:28;3.70;;;3.27;;
14776;SDS011;7480;43.124;25.686;2023-04-03T14:24:58;8.77;;;6.50;;
14776;SDS011;7480;43.124;25.686;2023-04-03T14:27:26;18.63;;;14.33;;
14776;SDS011;7480;43.124;25.686;2023-04-03T14:29:55;5.93;;;5.33;;
14776;SDS011;7480;43.124;25.686;2023-04-03T14:32:24;3.97;;;3.17;;
14776;SDS011;7480;43.124;25.686;2023-04-03T14:34:51;6.60;;;4.47;;
14776;SDS011;7480;43.124;25.686;2023-04-03T14:37:22;2.23;;;2.03;;
14776;SDS011;7480;43.124;25.686;2023-04-03T14:39:51;19.90;;;16.63;;
14776;SDS011;7480;43.124;25.686;2023-04-03T14:42:24;36.07;;;29.80;;
14776;SDS011;7480;43.124;25.686;2023-04-03T14:45:01;13.83;;;11.60;;
14776;SDS011;7480;43.124;25.686;2023-04-03T14:47:29;7.10;;;6.40;;
14776;SDS011;7480;43.124;25.686;2023-04-03T14:50:02;5.17;;;4.67;;
14776;SDS011;7480;43.124;25.686;2023-04-03T14:52:32;5.53;;;3.80;;
14776;SDS011;7480;43.124;25.686;2023-04-03T14:55:01;4.67;;;3.83;;
14776;SDS011;7480;43.124;25.686;2023-04-03T14:57:31;4.47;;;4.00;;
14776;SDS011;7480;43.124;25.686;2023-04-03T14:59:58;5.23;;;4.30;;
14776;SDS011;7480;43.124;25.686;2023-04-03T15:02:35;4.73;;;3.93;;
14776;SDS011;7480;43.124;25.686;2023-04-03T15:05:05;5.03;;;3.73;;
14776;SDS011;7480;43.124;25.686;2023-04-03T15:07:35;5.07;;;4.57;;
14776;SDS011;7480;43.124;25.686;2023-04-03T15:10:09;7.33;;;5.17;;
14776;SDS011;7480;43.124;25.686;2023-04-03T15:12:40;4.43;;;3.73;;
14776;SDS011;7480;43.124;25.686;2023-04-03T15:15:07;4.90;;;4.50;;
14776;SDS011;7480;43.124;25.686;2023-04-03T15:17:34;6.17;;;5.17;;
14776;SDS011;7480;43.124;25.686;2023-04-03T15:20:02;10.57;;;8.53;;
14776;SDS011;7480;43.124;25.686;2023-04-03T15:22:29;6.00;;;5.33;;
14776;SDS011;7480;43.124;25.686;2023-04-03T15:24:56;6.20;;;4.80;;
14776;SDS011;7480;43.124;25.686;2023-04-03T15:27:23;6.67;;;6.00;;
14776;SDS011;7480;43.124;25.686;2023-04-03T15:29:49;4.50;;;4.10;;
14776;SDS011;7480;43.124;25.686;2023-04-03T15:32:16;5.07;;;4.53;;
14776;SDS011;7480;43.124;25.686;2023-04-03T15:34:43;4.70;;;4.30;;
14776;SDS011;7480;43.124;25.686;2023-04-03T15:37:10;4.70;;;4.30;;
14776;SDS011;7480;43.124;25.686;2023-04-03T15:39:36;5.20;;;4.60;;
14776;SDS011;7480;43.124;25.686;2023-04-03T15:42:03;7.70;;;6.90;;
14776;SDS011;7480;43.124;25.686;2023-04-03T15:44:35;4.87;;;4.37;;
14776;SDS011;7480;43.124;25.686;2023-04-03T15:47:02;8.37;;;6.13;;
14776;SDS011;7480;43.124;25.686;2023-04-03T15:49:29;10.50;;;7.10;;
14776;SDS011;7480;43.124;25.686;2023-04-03T15:51:58;6.27;;;5.10;;
14776;SDS011;7480;43.124;25.686;2023-04-03T15:54:25;5.40;;;4.53;;
14776;SDS011;7480;43.124;25.686;2023-04-03T15:56:52;7.23;;;6.53;;
14776;SDS011;7480;43.124;25.686;2023-04-03T15:59:19;6.43;;;5.77;;
14776;SDS011;7480;43.124;25.686;2023-04-03T16:01:46;6.43;;;5.67;;
14776;SDS011;7480;43.124;25.686;2023-04-03T16:04:14;5.10;;;4.70;;
14776;SDS011;7480;43.124;25.686;2023-04-03T16:06:42;6.20;;;5.67;;
14776;SDS011;7480;43.124;25.686;2023-04-03T16:09:09;6.90;;;6.30;;
14776;SDS011;7480;43.124;25.686;2023-04-03T16:11:36;10.77;;;8.67;;
14776;SDS011;7480;43.124;25.686;2023-04-03T16:14:06;9.80;;;8.03;;
14776;SDS011;7480;43.124;25.686;2023-04-03T16:16:33;9.50;;;8.57;;
14776;SDS011;7480;43.124;25.686;2023-04-03T16:19:01;12.60;;;9.00;;
14776;SDS011;7480;43.124;25.686;2023-04-03T16:21:28;14.30;;;9.63;;
14776;SDS011;7480;43.124;25.686;2023-04-03T16:23:58;14.50;;;9.93;;
14776;SDS011;7480;43.124;25.686;2023-04-03T16:26:25;9.10;;;6.80;;
14776;SDS011;7480;43.124;25.686;2023-04-03T16:28:52;7.23;;;5.93;;
14776;SDS011;7480;43.124;25.686;2023-04-03T16:31:20;6.33;;;5.30;;
14776;SDS011;7480;43.124;25.686;2023-04-03T16:33:47;5.43;;;4.83;;
14776;SDS011;7480;43.124;25.686;2023-04-03T16:36:14;7.77;;;6.67;;
14776;SDS011;7480;43.124;25.686;2023-04-03T16:38:40;8.23;;;6.77;;
14776;SDS011;7480;43.124;25.686;2023-04-03T16:41:07;10.67;;;9.57;;
14776;SDS011;7480;43.124;25.686;2023-04-03T16:43:34;10.70;;;8.87;;
14776;SDS011;7480;43.124;25.686;2023-04-03T16:46:02;7.47;;;6.70;;
14776;SDS011;7480;43.124;25.686;2023-04-03T16:48:29;12.27;;;9.70;;
14776;SDS011;7480;43.124;25.686;2023-04-03T16:50:56;10.63;;;9.53;;
14776;SDS011;7480;43.124;25.686;2023-04-03T16:53:24;14.67;;;13.37;;
14776;SDS011;7480;43.124;25.686;2023-04-03T16:55:51;9.17;;;7.90;;
14776;SDS011;7480;43.124;25.686;2023-04-03T16:58:18;12.73;;;9.30;;